createdAt,value
2018-05-21T00:01:27.018Z,15.50
2018-05-21T00:03:57.058Z,15.61
2018-05-21T00:06:28.056Z,15.58
2018-05-21T00:08:58.392Z,15.60
2018-05-21T00:11:30.416Z,15.61
2018-05-21T00:14:00.029Z,15.53
2018-05-21T00:16:33.031Z,15.52
2018-05-21T00:19:03.455Z,15.53
2018-05-21T00:21:35.599Z,15.63
2018-05-21T00:24:07.659Z,15.49
2018-05-21T00:26:38.020Z,15.43
2018-05-21T00:29:08.698Z,15.33
2018-05-21T00:31:39.342Z,15.32
2018-05-21T00:34:09.971Z,15.22
2018-05-21T00:36:40.173Z,15.19
2018-05-21T00:39:10.640Z,15.22
2018-05-21T00:41:41.261Z,15.11
2018-05-21T00:44:11.414Z,15.09
2018-05-21T00:46:41.287Z,15.14
2018-05-21T00:49:12.284Z,15.18
2018-05-21T00:51:44.469Z,15.20
2018-05-21T00:54:16.630Z,15.06
2018-05-21T00:56:48.474Z,15.00
2018-05-21T00:59:18.125Z,14.90
2018-05-21T01:01:48.235Z,14.88
2018-05-21T01:04:18.360Z,14.88
2018-05-21T01:06:48.340Z,14.87
2018-05-21T01:09:18.082Z,14.86
2018-05-21T01:11:48.474Z,14.82
2018-05-21T01:14:23.184Z,14.86
2018-05-21T01:16:55.299Z,15.01
2018-05-21T01:19:25.239Z,14.99
2018-05-21T01:21:57.469Z,14.96
2018-05-21T01:24:30.024Z,14.97
2018-05-21T01:27:02.608Z,14.97
2018-05-21T01:29:34.447Z,14.98
2018-05-21T01:32:04.700Z,15.06
2018-05-21T01:34:35.755Z,15.02
2018-05-21T01:37:05.497Z,14.99
2018-05-21T01:39:35.472Z,14.94
2018-05-21T01:42:05.054Z,14.96
2018-05-21T01:44:35.743Z,14.94
2018-05-21T01:47:06.017Z,14.97
2018-05-21T01:49:36.847Z,14.98
2018-05-21T01:52:06.403Z,14.95
2018-05-21T01:54:36.490Z,15.04
2018-05-21T01:57:07.444Z,15.04
2018-05-21T01:59:37.344Z,15.06
2018-05-21T02:02:08.710Z,15.09
2018-05-21T02:04:43.051Z,15.01
2018-05-21T02:07:13.431Z,15.06
2018-05-21T02:09:45.351Z,14.98
2018-05-21T02:12:15.732Z,14.97
2018-05-21T02:14:45.255Z,14.95
2018-05-21T02:17:15.102Z,14.97
2018-05-21T02:19:44.634Z,14.97
2018-05-21T02:22:14.462Z,14.99
2018-05-21T02:24:44.064Z,15.00
2018-05-21T02:27:13.683Z,14.98
2018-05-21T02:29:43.312Z,14.98
2018-05-21T02:32:13.116Z,15.08
2018-05-21T02:34:42.636Z,15.08
2018-05-21T02:37:12.214Z,15.00
2018-05-21T02:39:41.894Z,14.94
2018-05-21T02:42:12.265Z,14.98
2018-05-21T02:44:44.321Z,15.04
2018-05-21T02:47:13.854Z,15.05
2018-05-21T02:49:43.528Z,15.04
2018-05-21T02:52:13.472Z,15.13
2018-05-21T02:54:43.164Z,15.17
2018-05-21T02:57:12.892Z,15.19
2018-05-21T03:02:39.156Z,15.14
2018-05-21T03:05:08.900Z,15.14
2018-05-21T03:07:38.656Z,15.19
2018-05-21T03:10:08.392Z,15.14
2018-05-21T03:12:38.165Z,15.18
2018-05-21T03:15:07.711Z,15.29
2018-05-21T03:17:37.265Z,15.30
2018-05-21T03:20:07.603Z,15.31
2018-05-21T03:22:37.454Z,15.26
2018-05-21T03:25:07.035Z,15.24
2018-05-21T03:27:36.517Z,15.18
2018-05-21T03:30:06.244Z,15.20
2018-05-21T03:32:35.767Z,15.22
2018-05-21T03:35:11.934Z,15.35
2018-05-21T03:37:43.177Z,15.46
2018-05-21T03:40:12.787Z,15.44
2018-05-21T03:42:43.223Z,15.44
2018-05-21T03:45:14.063Z,15.42
2018-05-21T03:47:44.249Z,15.37
2018-05-21T03:50:14.779Z,15.33
2018-05-21T03:52:46.496Z,15.25
2018-05-21T03:55:18.307Z,15.24
2018-05-21T03:57:47.959Z,15.24
2018-05-21T04:00:35.976Z,15.24
2018-05-21T04:03:23.395Z,15.21
2018-05-21T04:05:53.305Z,15.22
2018-05-21T04:08:23.012Z,15.30
2018-05-21T04:10:52.531Z,15.32
2018-05-21T04:13:22.853Z,15.34
2018-05-21T04:15:52.461Z,15.38
2018-05-21T04:18:22.900Z,15.40
2018-05-21T04:20:53.618Z,15.41
2018-05-21T04:23:23.247Z,15.44
2018-05-21T04:25:52.959Z,15.48
2018-05-21T04:28:23.374Z,15.51
2018-05-21T04:30:53.172Z,15.60
2018-05-21T04:33:23.166Z,15.65
2018-05-21T04:35:53.460Z,15.74
2018-05-21T04:38:23.038Z,15.79
2018-05-21T04:40:52.561Z,15.83
2018-05-21T04:43:22.812Z,15.87
2018-05-21T04:45:53.245Z,16.09
2018-05-21T04:48:23.723Z,16.30
2018-05-21T04:50:54.203Z,16.49
2018-05-21T04:53:23.962Z,16.62
2018-05-21T04:55:53.475Z,16.70
2018-05-21T04:58:23.285Z,16.91
2018-05-21T05:00:52.861Z,17.20
2018-05-21T05:03:22.707Z,17.50
2018-05-21T05:05:54.805Z,17.70
2018-05-21T05:08:25.985Z,17.92
2018-05-21T05:10:55.621Z,18.25
2018-05-21T05:13:25.388Z,18.57
2018-05-21T05:15:55.715Z,19.03
2018-05-21T05:18:26.545Z,19.65
2018-05-21T05:20:56.812Z,20.19
2018-05-21T05:23:26.322Z,20.80
2018-05-21T05:25:56.016Z,21.11
2018-05-21T05:28:25.648Z,21.18
2018-05-21T05:30:55.476Z,21.37
2018-05-21T05:33:25.033Z,21.62
2018-05-21T05:35:54.658Z,21.91
2018-05-21T05:38:24.300Z,22.08
2018-05-21T05:40:55.422Z,22.03
2018-05-21T05:43:25.327Z,21.76
2018-05-21T05:45:54.947Z,21.40
2018-05-21T05:48:24.734Z,21.10
2018-05-21T05:50:54.484Z,21.05
2018-05-21T05:53:24.263Z,21.07
2018-05-21T05:55:53.932Z,21.63
2018-05-21T05:58:23.711Z,23.36
2018-05-21T06:00:53.428Z,24.61
2018-05-21T06:03:22.969Z,25.33
2018-05-21T06:05:52.704Z,25.55
2018-05-21T06:08:22.274Z,25.97
2018-05-21T06:10:51.919Z,26.44
2018-05-21T06:13:21.695Z,26.92
2018-05-21T06:15:51.590Z,26.89
2018-05-21T06:18:21.568Z,26.72
2018-05-21T06:20:51.081Z,26.55
2018-05-21T06:23:20.863Z,26.28
2018-05-21T06:25:50.870Z,26.60
2018-05-21T06:28:20.606Z,27.13
2018-05-21T06:30:50.160Z,26.70
2018-05-21T06:33:19.781Z,25.38
2018-05-21T06:35:49.757Z,24.59
2018-05-21T06:38:19.495Z,24.42
2018-05-21T06:40:49.066Z,24.91
2018-05-21T06:43:18.600Z,25.57
2018-05-21T06:45:48.285Z,25.48
2018-05-21T06:48:17.793Z,25.26
2018-05-21T06:50:47.873Z,24.37
2018-05-21T06:53:17.547Z,24.40
2018-05-21T06:55:47.905Z,25.64
2018-05-21T06:58:18.281Z,26.49
2018-05-21T07:00:47.805Z,26.28
2018-05-21T07:03:17.445Z,27.31
2018-05-21T07:05:46.928Z,27.91
2018-05-21T07:08:16.442Z,28.66
2018-05-21T07:10:46.143Z,29.12
2018-05-21T07:13:15.661Z,29.28
2018-05-21T07:15:45.195Z,30.05
2018-05-21T07:18:15.506Z,30.75
2018-05-21T07:20:45.194Z,30.52
2018-05-21T07:23:14.748Z,29.76
2018-05-21T07:25:45.018Z,29.94
2018-05-21T07:28:15.970Z,29.53
2018-05-21T07:30:46.265Z,30.04
2018-05-21T07:33:15.939Z,30.61
2018-05-21T07:35:46.213Z,31.01
2018-05-21T07:38:15.713Z,30.61
2018-05-21T07:40:45.206Z,31.09
2018-05-21T07:43:14.834Z,31.20
2018-05-21T07:45:44.424Z,31.18
2018-05-21T07:48:14.478Z,30.32
2018-05-21T07:50:52.015Z,29.82
2018-05-21T07:53:23.312Z,30.34
2018-05-21T07:55:52.850Z,29.52
2018-05-21T07:58:34.946Z,28.69
2018-05-21T08:01:05.219Z,28.55
2018-05-21T08:03:35.491Z,28.57
2018-05-21T08:06:11.416Z,29.35
2018-05-21T08:08:41.098Z,28.28
2018-05-21T08:11:11.362Z,28.87
2018-05-21T08:13:40.887Z,29.27
2018-05-21T08:16:10.346Z,29.88
2018-05-21T08:18:40.775Z,30.23
2018-05-21T08:21:11.672Z,30.63
2018-05-21T08:23:41.940Z,31.17
2018-05-21T08:26:11.628Z,30.87
2018-05-21T08:28:41.903Z,29.71
2018-05-21T08:31:11.449Z,30.19
2018-05-21T08:33:41.770Z,30.77
2018-05-21T08:36:12.355Z,31.89
2018-05-21T08:38:41.942Z,32.35
2018-05-21T08:41:11.565Z,32.08
2018-05-21T08:43:41.147Z,31.46
2018-05-21T08:46:11.081Z,31.73
2018-05-21T08:48:41.674Z,32.03
2018-05-21T08:51:12.228Z,32.06
2018-05-21T08:53:41.804Z,32.03
2018-05-21T08:56:12.100Z,30.68
2018-05-21T08:58:41.759Z,29.46
2018-05-21T09:01:11.263Z,29.17
2018-05-21T09:03:41.545Z,29.44
2018-05-21T09:06:10.994Z,29.33
2018-05-21T09:08:41.355Z,29.35
2018-05-21T09:11:10.873Z,29.02
2018-05-21T09:13:40.432Z,29.26
2018-05-21T09:16:11.666Z,29.66
2018-05-21T09:18:42.249Z,29.20
2018-05-21T09:21:11.741Z,29.31
2018-05-21T09:23:41.557Z,29.05
2018-05-21T09:26:11.108Z,30.23
2018-05-21T09:28:40.690Z,31.35
2018-05-21T09:31:10.388Z,31.80
2018-05-21T09:33:39.942Z,30.28
2018-05-21T09:36:09.432Z,29.82
2018-05-21T09:38:39.281Z,28.31
2018-05-21T09:41:09.621Z,29.11
2018-05-21T09:43:39.357Z,28.23
2018-05-21T09:46:08.959Z,28.55
2018-05-21T09:48:38.578Z,28.05
2018-05-21T09:51:08.053Z,28.79
2018-05-21T09:53:37.586Z,27.46
2018-05-21T09:56:07.194Z,26.93
2018-05-21T09:58:36.652Z,27.01
2018-05-21T10:01:07.234Z,27.07
2018-05-21T10:03:36.772Z,26.52
2018-05-21T10:06:06.251Z,26.15
2018-05-21T10:08:35.778Z,25.70
2018-05-21T10:11:05.452Z,26.02
2018-05-21T10:13:35.764Z,26.99
2018-05-21T10:16:05.353Z,26.74
2018-05-21T10:18:35.000Z,26.03
2018-05-21T10:21:04.598Z,25.61
2018-05-21T10:23:34.214Z,24.32
2018-05-21T10:26:03.772Z,23.86
2018-05-21T10:28:33.447Z,23.61
2018-05-21T10:31:03.413Z,23.58
2018-05-21T10:33:33.039Z,23.67
2018-05-21T10:36:03.283Z,23.87
2018-05-21T10:38:32.991Z,24.15
2018-05-21T10:41:02.945Z,23.88
2018-05-21T10:43:32.622Z,23.82
2018-05-21T10:46:02.536Z,23.69
2018-05-21T10:48:32.028Z,23.89
2018-05-21T10:51:02.371Z,23.51
2018-05-21T10:53:31.893Z,23.48
2018-05-21T10:56:01.886Z,23.31
2018-05-21T10:58:31.404Z,22.98
2018-05-21T11:01:01.624Z,22.87
2018-05-21T11:03:31.114Z,22.75
2018-05-21T11:06:00.828Z,22.61
2018-05-21T11:08:30.311Z,22.30
2018-05-21T11:11:00.038Z,22.27
2018-05-21T11:13:29.768Z,22.23
2018-05-21T11:16:00.937Z,22.51
2018-05-21T11:18:30.611Z,22.63
2018-05-21T11:21:00.328Z,22.60
2018-05-21T11:23:30.395Z,22.89
2018-05-21T11:26:01.071Z,22.91
2018-05-21T11:28:30.634Z,22.95
2018-05-21T11:31:01.528Z,23.14
2018-05-21T11:33:32.271Z,23.21
2018-05-21T11:36:02.040Z,23.19
2018-05-21T11:38:31.754Z,23.20
2018-05-21T11:41:01.911Z,23.16
2018-05-21T11:43:31.360Z,23.11
2018-05-21T11:46:02.100Z,22.87
2018-05-21T11:48:31.644Z,22.80
2018-05-21T11:51:01.680Z,22.74
2018-05-21T11:53:32.072Z,22.66
2018-05-21T11:56:02.359Z,22.64
2018-05-21T11:58:32.241Z,22.68
2018-05-21T12:01:02.244Z,22.95
2018-05-21T12:03:31.778Z,23.38
2018-05-21T12:06:01.729Z,23.50
2018-05-21T12:08:31.508Z,23.44
2018-05-21T12:11:01.605Z,22.98
2018-05-21T12:13:31.493Z,22.76
2018-05-21T12:16:01.466Z,22.73
2018-05-21T12:18:31.079Z,22.67
2018-05-21T12:21:00.914Z,22.58
2018-05-21T12:23:31.768Z,22.47
2018-05-21T12:26:01.979Z,22.20
2018-05-21T12:28:32.349Z,21.70
2018-05-21T12:31:03.595Z,21.42
2018-05-21T12:33:35.621Z,21.25
2018-05-21T12:36:08.135Z,21.28
2018-05-21T12:38:39.098Z,21.43
2018-05-21T12:41:08.734Z,21.46
2018-05-21T12:43:38.581Z,21.45
2018-05-21T12:46:08.049Z,21.69
2018-05-21T12:48:38.348Z,22.00
2018-05-21T12:51:07.949Z,22.17
2018-05-21T12:53:47.889Z,22.19
2018-05-21T12:56:17.394Z,22.15
2018-05-21T12:58:52.152Z,22.15
2018-05-21T13:01:28.288Z,22.33
2018-05-21T13:03:57.828Z,22.48
2018-05-21T13:06:27.343Z,22.49
2018-05-21T13:08:57.097Z,22.28
2018-05-21T13:11:26.682Z,22.30
2018-05-21T13:13:56.332Z,22.18
2018-05-21T13:16:25.951Z,22.29
2018-05-21T13:19:26.775Z,22.55
2018-05-21T13:25:12.665Z,23.15
2018-05-21T13:27:53.151Z,23.32
2018-05-21T13:30:22.869Z,23.60
2018-05-21T13:32:52.575Z,22.96
2018-05-21T13:35:22.122Z,23.11
2018-05-21T13:37:52.377Z,23.13
2018-05-21T13:40:21.926Z,23.06
2018-05-21T13:42:51.460Z,22.95
2018-05-21T13:45:20.952Z,23.02
2018-05-21T13:47:50.607Z,22.85
2018-05-21T13:50:20.603Z,22.87
2018-05-21T13:52:51.143Z,22.83
2018-05-21T13:55:21.712Z,23.19
2018-05-21T13:57:53.188Z,23.55
2018-05-21T14:00:27.977Z,23.73
2018-05-21T14:03:13.777Z,23.57
2018-05-21T14:05:43.505Z,23.28
2018-05-21T14:08:13.422Z,23.08
2018-05-21T14:10:43.430Z,22.60
2018-05-21T14:13:13.026Z,22.59
2018-05-21T14:18:16.590Z,22.24
2018-05-21T14:20:46.149Z,22.20
2018-05-21T14:23:16.543Z,22.22
2018-05-21T14:25:46.880Z,22.28
2018-05-21T14:28:18.731Z,22.29
2018-05-21T14:30:49.203Z,22.37
2018-05-21T14:33:18.949Z,22.53
2018-05-21T14:35:48.399Z,22.57
2018-05-21T14:38:20.387Z,22.77
2018-05-21T14:40:49.889Z,22.90
2018-05-21T14:43:19.696Z,23.04
2018-05-21T14:45:50.249Z,23.22
2018-05-21T14:48:19.828Z,23.37
2018-05-21T14:50:49.573Z,23.58
2018-05-21T14:53:19.088Z,23.64
2018-05-21T14:55:48.588Z,23.32
2018-05-21T14:58:18.817Z,23.26
2018-05-21T15:00:48.876Z,23.23
2018-05-21T15:03:18.653Z,23.21
2018-05-21T15:05:48.319Z,23.31
2018-05-21T15:08:18.958Z,23.41
2018-05-21T15:10:54.968Z,23.46
2018-05-21T15:13:25.311Z,23.49
2018-05-21T15:15:54.944Z,23.45
2018-05-21T15:18:56.127Z,23.42
2018-05-21T15:21:56.822Z,23.29
2018-05-21T15:24:52.625Z,23.23
2018-05-21T15:30:26.528Z,23.40
2018-05-21T15:32:56.161Z,23.33
2018-05-21T15:35:25.671Z,23.18
2018-05-21T15:37:55.308Z,23.00
2018-05-21T15:40:24.929Z,22.90
2018-05-21T15:42:54.620Z,22.79
2018-05-21T15:45:24.316Z,22.27
2018-05-21T15:47:54.595Z,21.71
2018-05-21T15:50:24.060Z,21.20
2018-05-21T15:52:53.649Z,20.99
2018-05-21T15:55:23.279Z,20.91
2018-05-21T15:57:52.872Z,20.84
2018-05-21T16:00:22.385Z,20.72
2018-05-21T16:02:51.946Z,20.59
2018-05-21T16:05:22.240Z,20.49
2018-05-21T16:07:51.939Z,20.36
2018-05-21T16:10:21.653Z,20.25
2018-05-21T16:12:51.317Z,20.13
2018-05-21T16:15:24.030Z,20.01
2018-05-21T16:17:54.942Z,19.91
2018-05-21T16:20:24.486Z,19.85
2018-05-21T16:22:54.555Z,19.82
2018-05-21T16:25:25.299Z,19.81
2018-05-21T16:27:55.738Z,19.87
2018-05-21T16:30:25.575Z,19.76
2018-05-21T16:32:55.265Z,19.58
2018-05-21T16:35:25.003Z,19.35
2018-05-21T16:37:55.021Z,19.04
2018-05-21T16:40:24.814Z,18.34
2018-05-21T16:42:55.581Z,17.27
2018-05-21T16:45:25.604Z,16.98
2018-05-21T16:47:56.015Z,17.02
2018-05-21T16:50:25.556Z,16.98
2018-05-21T16:52:55.078Z,16.78
2018-05-21T16:55:25.558Z,16.63
2018-05-21T16:57:55.283Z,16.53
2018-05-21T17:00:25.029Z,16.50
2018-05-21T17:02:55.111Z,16.66
2018-05-21T17:05:26.140Z,16.70
2018-05-21T17:07:55.680Z,16.69
2018-05-21T17:10:30.583Z,16.77
2018-05-21T17:13:01.614Z,16.90
2018-05-21T17:15:31.134Z,16.86
2018-05-21T17:18:00.847Z,16.88
2018-05-21T17:20:30.479Z,16.96
2018-05-21T17:23:05.590Z,16.99
2018-05-21T17:25:35.980Z,16.98
2018-05-21T17:28:05.688Z,16.96
2018-05-21T17:30:35.432Z,16.92
2018-05-21T17:33:06.325Z,16.94
2018-05-21T17:35:35.924Z,16.84
2018-05-21T17:38:05.592Z,16.82
2018-05-21T17:40:35.173Z,16.68
2018-05-21T17:43:05.013Z,16.60
2018-05-21T17:45:34.486Z,16.56
2018-05-21T17:48:04.815Z,16.45
2018-05-21T17:50:34.493Z,16.48
2018-05-21T17:53:04.897Z,16.53
2018-05-21T17:55:34.582Z,16.45
2018-05-21T17:58:04.119Z,16.31
2018-05-21T18:00:33.595Z,16.24
2018-05-21T18:03:04.079Z,16.32
2018-05-21T18:05:34.557Z,16.26
2018-05-21T18:08:04.647Z,16.20
2018-05-21T18:10:34.370Z,16.15
2018-05-21T18:13:04.909Z,16.12
2018-05-21T18:15:36.152Z,16.11
2018-05-21T18:18:05.695Z,16.13
2018-05-21T18:20:36.103Z,15.99
2018-05-21T18:23:05.785Z,15.88
2018-05-21T18:25:35.309Z,15.91
2018-05-21T18:28:04.862Z,15.95
2018-05-21T18:30:34.405Z,15.85
2018-05-21T18:33:04.013Z,15.75
2018-05-21T18:35:33.553Z,15.80
2018-05-21T18:38:03.620Z,15.86
2018-05-21T18:40:35.559Z,15.93
2018-05-21T18:46:39.045Z,15.97
2018-05-21T18:49:08.759Z,15.97
2018-05-21T18:51:39.269Z,15.92
2018-05-21T18:54:09.767Z,15.89
2018-05-21T18:56:44.980Z,15.98
2018-05-21T18:59:33.823Z,16.00
2018-05-21T19:02:30.505Z,15.99
2018-05-21T19:05:00.783Z,16.02
2018-05-21T19:07:30.361Z,16.06
2018-05-21T19:09:59.949Z,16.01
2018-05-21T19:12:29.694Z,15.96
2018-05-21T19:14:59.251Z,15.86
2018-05-21T19:17:29.966Z,15.80
2018-05-21T19:19:59.616Z,15.76
2018-05-21T19:22:29.571Z,15.82
2018-05-21T19:24:59.436Z,15.85
2018-05-21T19:27:29.355Z,15.86
2018-05-21T19:29:59.736Z,15.92
2018-05-21T19:32:31.033Z,15.99
2018-05-21T19:35:02.454Z,15.97
2018-05-21T19:37:33.293Z,15.96
2018-05-21T19:40:04.103Z,15.97
2018-05-21T19:42:33.823Z,16.05
2018-05-21T19:45:04.432Z,16.07
2018-05-21T19:47:44.249Z,16.10
2018-05-21T19:53:17.911Z,16.14
2018-05-21T19:55:47.869Z,16.12
2018-05-21T19:58:18.466Z,16.13
2018-05-21T20:00:55.636Z,16.09
2018-05-21T20:03:27.368Z,16.11
2018-05-21T20:06:16.399Z,16.03
2018-05-21T20:09:03.800Z,15.94
2018-05-21T20:11:35.912Z,15.92
2018-05-21T20:14:17.077Z,16.00
2018-05-21T20:16:59.590Z,16.05
2018-05-21T20:19:29.754Z,16.04
2018-05-21T20:22:00.689Z,16.01
2018-05-21T20:24:31.301Z,16.01
2018-05-21T20:27:01.609Z,16.05
2018-05-21T20:29:33.183Z,16.05
2018-05-21T20:32:06.863Z,16.06
2018-05-21T20:35:20.710Z,16.03
2018-05-21T20:37:54.634Z,15.99
2018-05-21T20:40:25.000Z,15.96
2018-05-21T20:42:54.619Z,15.93
2018-05-21T20:45:24.409Z,15.94
2018-05-21T20:47:54.160Z,15.99
2018-05-21T20:50:24.689Z,15.93
2018-05-21T20:52:55.166Z,15.90
2018-05-21T20:55:25.849Z,15.89
2018-05-21T20:57:55.960Z,15.87
2018-05-21T21:00:27.376Z,15.78
2018-05-21T21:02:58.337Z,15.77
2018-05-21T21:05:28.789Z,15.79
2018-05-21T21:07:59.104Z,15.79
2018-05-21T21:10:29.073Z,15.79
2018-05-21T21:13:04.026Z,15.76
2018-05-21T21:15:33.876Z,15.73
2018-05-21T21:18:04.409Z,15.72
2018-05-21T21:20:33.989Z,15.73
2018-05-21T21:23:03.525Z,15.69
2018-05-21T21:25:33.018Z,15.70
2018-05-21T21:28:03.057Z,15.70
2018-05-21T21:30:33.265Z,15.70
2018-05-21T21:33:03.205Z,15.66
2018-05-21T21:35:32.805Z,15.65
2018-05-21T21:38:02.713Z,15.67
2018-05-21T21:40:32.331Z,15.65
2018-05-21T21:43:03.325Z,15.67
2018-05-21T21:45:33.071Z,15.68
2018-05-21T21:48:03.202Z,15.67
2018-05-21T21:56:55.316Z,15.65
2018-05-21T22:02:30.928Z,15.70
2018-05-21T22:05:00.401Z,15.67
2018-05-21T22:07:30.285Z,15.65
2018-05-21T22:10:00.594Z,15.69
2018-05-21T22:12:31.078Z,15.68
2018-05-21T22:15:00.666Z,15.70
2018-05-21T22:17:30.539Z,15.71
2018-05-21T22:20:00.103Z,15.72
2018-05-21T22:22:29.856Z,15.72
2018-05-21T22:24:59.783Z,15.74
2018-05-21T22:27:29.682Z,15.77
2018-05-21T22:30:03.114Z,15.69
2018-05-21T22:32:35.785Z,15.48
2018-05-21T22:35:06.149Z,15.48
2018-05-21T22:37:35.951Z,15.58
2018-05-21T22:40:05.767Z,15.67
2018-05-21T22:42:35.739Z,15.68
2018-05-21T22:45:06.062Z,15.67
2018-05-21T22:47:35.987Z,15.65
2018-05-21T22:50:07.616Z,15.62
2018-05-21T22:52:48.989Z,15.63
2018-05-21T22:55:25.624Z,15.71
2018-05-21T22:57:56.214Z,15.71
2018-05-21T23:00:26.596Z,15.68
2018-05-21T23:02:58.010Z,15.59
2018-05-21T23:05:28.764Z,15.47
2018-05-21T23:07:58.748Z,15.46
2018-05-21T23:10:28.664Z,15.51
2018-05-21T23:12:58.491Z,15.58
2018-05-21T23:15:30.895Z,15.63
2018-05-21T23:18:03.704Z,15.64
2018-05-21T23:20:36.386Z,15.56
2018-05-21T23:23:07.165Z,15.49
2018-05-21T23:25:37.520Z,15.52
2018-05-21T23:28:07.385Z,15.59
2018-05-21T23:30:37.061Z,15.59
2018-05-21T23:33:08.951Z,15.61
2018-05-21T23:35:39.670Z,15.60
2018-05-21T23:38:09.674Z,15.50
2018-05-21T23:40:39.737Z,15.47
2018-05-21T23:43:14.993Z,15.47
2018-05-21T23:45:48.243Z,15.46
2018-05-21T23:48:25.172Z,15.45
2018-05-21T23:50:57.755Z,15.41
2018-05-21T23:53:34.030Z,15.37
2018-05-21T23:56:04.456Z,15.35
2018-05-21T23:58:37.371Z,15.35
